Time;durP1;ratioP1;P1;durP2;ratioP2;P2;SDS_P1;SDS_P2;PMS_P1;PMS_P2;Temp;Humidity;BMP_temperature;BMP_pressure;BME280_temperature;BME280_humidity;BME280_pressure;Samples;Min_cycle;Max_cycle;Signal;HPM_P1;HPM_P2
2021/08/15 00:02:22;;;;;;;6.68;2.85;;;;;;;;;;5091789;28;20096;-78
2021/08/15 00:04:48;;;;;;;5.22;2.75;;;;;;;;;;5108170;28;20040;-78
2021/08/15 00:07:14;;;;;;;7.65;3.10;;;;;;;;;;5089485;28;20025;-78
2021/08/15 00:09:39;;;;;;;9.63;3.63;;;;;;;;;;5070704;28;20052;-78
2021/08/15 00:12:07;;;;;;;7.30;3.20;;;;;;;;;;5070440;28;20032;-78
2021/08/15 00:14:33;;;;;;;9.55;2.83;;;;;;;;;;5071126;28;20033;-78
2021/08/15 00:16:59;;;;;;;6.47;3.30;;;;;;;;;;5070713;28;20092;-78
2021/08/15 00:19:26;;;;;;;8.23;2.92;;;;;;;;;;5070826;28;20029;-78
2021/08/15 00:21:53;;;;;;;7.18;2.72;;;;;;;;;;5070328;28;20455;-79
2021/08/15 00:24:19;;;;;;;7.40;4.40;;;;;;;;;;5100036;28;20024;-78
2021/08/15 00:26:44;;;;;;;6.70;2.83;;;;;;;;;;5110174;28;20088;-78
2021/08/15 00:29:09;;;;;;;7.75;3.20;;;;;;;;;;5126713;28;20039;-78
2021/08/15 00:31:35;;;;;;;7.88;3.00;;;;;;;;;;5110278;28;20035;-78
2021/08/15 00:34:01;;;;;;;6.25;3.30;;;;;;;;;;5108785;28;20158;-78
2021/08/15 00:36:27;;;;;;;10.32;2.53;;;;;;;;;;5096801;28;20039;-78
2021/08/15 00:38:53;;;;;;;3.97;2.03;;;;;;;;;;5105568;28;20099;-78
2021/08/15 00:41:18;;;;;;;3.72;2.08;;;;;;;;;;5088935;28;20043;-78
2021/08/15 00:43:43;;;;;;;2.47;1.70;;;;;;;;;;5105071;28;20047;-78
2021/08/15 00:46:10;;;;;;;5.93;2.65;;;;;;;;;;5087883;28;20059;-78
2021/08/15 00:48:36;;;;;;;6.82;3.00;;;;;;;;;;5084183;28;20042;-78
2021/08/15 00:51:02;;;;;;;6.05;3.30;;;;;;;;;;5082976;28;20118;-78
2021/08/15 00:53:40;;;;;;;10.10;3.65;;;;;;;;;;5082922;28;20047;-78
2021/08/15 00:56:08;;;;;;;7.65;3.50;;;;;;;;;;5084442;28;20063;-78
2021/08/15 00:58:34;;;;;;;10.32;3.20;;;;;;;;;;5067729;28;20076;-78
2021/08/15 01:01:08;;;;;;;8.48;4.07;;;;;;;;;;5067451;28;20059;-78
2021/08/15 01:03:35;;;;;;;10.15;3.70;;;;;;;;;;5083528;28;20500;-78
2021/08/15 01:06:02;;;;;;;6.65;2.88;;;;;;;;;;5066822;28;20040;-78
2021/08/15 01:08:34;;;;;;;6.63;3.47;;;;;;;;;;5067125;28;20044;-78
2021/08/15 01:11:08;;;;;;;6.93;3.20;;;;;;;;;;5067038;28;20482;-78
2021/08/15 01:13:36;;;;;;;5.80;2.72;;;;;;;;;;5066278;28;20037;-78
2021/08/15 01:16:05;;;;;;;8.27;3.58;;;;;;;;;;5066053;28;20106;-78
2021/08/15 01:18:35;;;;;;;4.85;2.67;;;;;;;;;;5066599;28;20127;-78
2021/08/15 01:21:07;;;;;;;6.50;2.90;;;;;;;;;;5071718;28;20112;-78
2021/08/15 01:23:42;;;;;;;6.07;3.28;;;;;;;;;;5085617;28;20028;-78
2021/08/15 01:26:10;;;;;;;13.43;3.60;;;;;;;;;;5086145;28;20039;-78
2021/08/15 01:28:36;;;;;;;12.35;3.22;;;;;;;;;;5103218;28;20051;-78
2021/08/15 01:31:02;;;;;;;5.00;2.78;;;;;;;;;;5103446;28;20032;-78
2021/08/15 01:33:32;;;;;;;8.95;4.82;;;;;;;;;;5086562;28;20130;-78
2021/08/15 01:36:00;;;;;;;6.10;3.47;;;;;;;;;;5102993;28;20036;-78
2021/08/15 01:38:28;;;;;;;5.18;3.30;;;;;;;;;;5086187;28;20099;-78
2021/08/15 01:40:54;;;;;;;4.90;3.33;;;;;;;;;;5085996;28;20035;-78
2021/08/15 01:43:20;;;;;;;6.72;3.50;;;;;;;;;;5086134;28;20213;-78
2021/08/15 01:45:46;;;;;;;4.75;2.80;;;;;;;;;;5085703;28;20068;-78
2021/08/15 01:48:12;;;;;;;12.23;3.50;;;;;;;;;;5085927;28;20016;-78
2021/08/15 01:50:39;;;;;;;9.10;3.40;;;;;;;;;;5102378;28;20043;-78
2021/08/15 01:53:10;;;;;;;4.25;2.60;;;;;;;;;;5102181;28;20036;-78
2021/08/15 01:55:37;;;;;;;5.45;2.63;;;;;;;;;;5123336;28;20042;-78
2021/08/15 01:58:03;;;;;;;5.03;2.95;;;;;;;;;;5123055;28;20554;-79
2021/08/15 02:00:28;;;;;;;8.60;2.70;;;;;;;;;;5106586;28;20095;-78
2021/08/15 02:02:54;;;;;;;4.80;2.60;;;;;;;;;;5106021;28;20040;-78
2021/08/15 02:05:19;;;;;;;7.82;3.88;;;;;;;;;;5122148;28;20035;-78
2021/08/15 02:07:46;;;;;;;9.50;3.83;;;;;;;;;;5105224;28;20024;-79
2021/08/15 02:10:14;;;;;;;11.57;5.13;;;;;;;;;;5106650;28;20068;-78
2021/08/15 02:12:40;;;;;;;8.50;3.60;;;;;;;;;;5106005;28;20130;-78
2021/08/15 02:15:06;;;;;;;13.15;3.90;;;;;;;;;;5123888;28;20055;-79
2021/08/15 02:17:32;;;;;;;9.68;3.65;;;;;;;;;;5097827;28;20493;-78
2021/08/15 02:19:59;;;;;;;10.35;3.25;;;;;;;;;;5064867;28;20047;-78
2021/08/15 02:22:28;;;;;;;8.05;2.95;;;;;;;;;;5095227;28;20040;-78
2021/08/15 02:24:53;;;;;;;5.82;2.97;;;;;;;;;;5069334;28;20097;-78
2021/08/15 02:27:18;;;;;;;6.28;2.95;;;;;;;;;;5102207;28;20032;-78
2021/08/15 02:29:47;;;;;;;6.60;2.97;;;;;;;;;;5085987;28;20066;-78
2021/08/15 02:32:13;;;;;;;9.27;3.00;;;;;;;;;;5086632;28;20028;-78
2021/08/15 02:34:38;;;;;;;8.43;3.72;;;;;;;;;;5101427;28;20066;-78
2021/08/15 02:37:04;;;;;;;7.60;3.40;;;;;;;;;;5085645;28;20036;-78
2021/08/15 02:39:29;;;;;;;8.95;4.43;;;;;;;;;;5102145;28;20444;-78
2021/08/15 02:41:55;;;;;;;5.60;3.10;;;;;;;;;;5084959;28;20032;-78
2021/08/15 02:44:20;;;;;;;6.55;3.00;;;;;;;;;;5101431;28;20485;-78
2021/08/15 02:46:46;;;;;;;6.43;3.50;;;;;;;;;;5101992;28;20035;-78
2021/08/15 02:49:11;;;;;;;6.72;3.00;;;;;;;;;;5103041;28;20114;-78
2021/08/15 02:51:37;;;;;;;8.25;3.03;;;;;;;;;;5085217;28;20035;-78
2021/08/15 02:54:02;;;;;;;8.15;3.30;;;;;;;;;;5080857;28;20028;-78
2021/08/15 02:56:30;;;;;;;9.50;3.53;;;;;;;;;;5080543;28;20033;-78
2021/08/15 02:58:57;;;;;;;5.22;3.53;;;;;;;;;;5064517;28;20036;-78
2021/08/15 03:01:22;;;;;;;7.30;3.00;;;;;;;;;;5063785;28;20047;-78
2021/08/15 03:03:47;;;;;;;6.05;3.13;;;;;;;;;;5064048;28;20032;-78
2021/08/15 03:06:13;;;;;;;7.30;3.30;;;;;;;;;;5063765;28;20486;-77
2021/08/15 03:08:38;;;;;;;8.23;4.38;;;;;;;;;;5081968;28;20100;-78
2021/08/15 03:11:06;;;;;;;10.85;4.35;;;;;;;;;;5083679;28;20042;-78
2021/08/15 03:13:32;;;;;;;3.92;2.75;;;;;;;;;;5100527;28;20036;-78
2021/08/15 03:15:57;;;;;;;7.80;3.20;;;;;;;;;;5100644;28;20496;-78
2021/08/15 03:18:23;;;;;;;10.77;3.13;;;;;;;;;;5100217;28;20468;-79
2021/08/15 03:20:48;;;;;;;8.35;3.65;;;;;;;;;;5079237;28;20028;-78
2021/08/15 03:23:13;;;;;;;8.52;3.67;;;;;;;;;;5062808;28;20131;-77
2021/08/15 03:25:39;;;;;;;7.38;3.47;;;;;;;;;;5063044;28;20105;-78
2021/08/15 03:28:07;;;;;;;7.78;3.47;;;;;;;;;;5079675;28;20036;-78
2021/08/15 03:30:34;;;;;;;5.63;3.13;;;;;;;;;;5063816;28;20033;-78
2021/08/15 03:33:00;;;;;;;5.55;2.90;;;;;;;;;;5063030;28;20056;-78
2021/08/15 03:35:26;;;;;;;5.88;3.28;;;;;;;;;;5062906;28;20044;-78
2021/08/15 03:37:51;;;;;;;4.88;2.90;;;;;;;;;;5062527;28;20048;-78
2021/08/15 03:40:17;;;;;;;4.60;3.05;;;;;;;;;;5080351;28;20105;-78
2021/08/15 03:42:43;;;;;;;6.35;3.47;;;;;;;;;;5062818;28;20037;-78
2021/08/15 03:45:09;;;;;;;5.70;2.95;;;;;;;;;;5064049;28;20043;-78
2021/08/15 03:47:35;;;;;;;8.85;3.55;;;;;;;;;;5081099;28;20115;-78
2021/08/15 03:50:02;;;;;;;5.75;2.88;;;;;;;;;;5063817;28;20028;-78
2021/08/15 03:52:27;;;;;;;6.03;3.42;;;;;;;;;;5063192;28;20418;-78
2021/08/15 03:54:53;;;;;;;12.43;3.80;;;;;;;;;;5079033;28;20059;-78
2021/08/15 03:57:18;;;;;;;4.90;3.47;;;;;;;;;;5079778;28;20040;-78
2021/08/15 03:59:46;;;;;;;7.60;3.78;;;;;;;;;;5062819;28;20089;-79
2021/08/15 04:02:12;;;;;;;8.02;4.18;;;;;;;;;;5061533;28;20498;-78
2021/08/15 04:04:37;;;;;;;7.97;3.50;;;;;;;;;;5079156;28;20099;-78
2021/08/15 04:07:04;;;;;;;4.57;3.08;;;;;;;;;;5061894;28;20497;-77
2021/08/15 04:09:29;;;;;;;6.05;3.28;;;;;;;;;;5078003;28;20033;-78
2021/08/15 04:11:55;;;;;;;9.40;3.33;;;;;;;;;;5061724;28;20033;-77
2021/08/15 04:14:20;;;;;;;8.77;3.80;;;;;;;;;;5061959;28;20037;-77
2021/08/15 04:16:46;;;;;;;6.03;3.78;;;;;;;;;;5058330;28;20043;-78
2021/08/15 04:19:11;;;;;;;6.10;3.97;;;;;;;;;;5079471;28;20037;-78
2021/08/15 04:21:37;;;;;;;7.07;4.40;;;;;;;;;;5080322;28;20040;-78
2021/08/15 04:24:02;;;;;;;9.43;4.72;;;;;;;;;;5079938;28;20121;-78
2021/08/15 04:26:28;;;;;;;7.20;4.25;;;;;;;;;;5082299;28;20020;-78
2021/08/15 04:28:54;;;;;;;10.25;4.50;;;;;;;;;;5100850;28;20572;-78
2021/08/15 04:31:19;;;;;;;11.60;5.50;;;;;;;;;;5086704;28;20131;-78
2021/08/15 04:33:45;;;;;;;10.85;5.32;;;;;;;;;;5102943;28;20079;-78
2021/08/15 04:36:10;;;;;;;14.30;5.93;;;;;;;;;;5086224;28;20028;-78
2021/08/15 04:38:38;;;;;;;18.90;5.93;;;;;;;;;;5085478;28;20040;-78
2021/08/15 04:41:04;;;;;;;9.75;4.88;;;;;;;;;;5085299;28;20047;-78
2021/08/15 04:43:32;;;;;;;8.70;4.55;;;;;;;;;;5085975;28;20024;-78
2021/08/15 04:45:58;;;;;;;8.55;4.05;;;;;;;;;;5086655;28;20120;-78
2021/08/15 04:48:24;;;;;;;15.77;6.43;;;;;;;;;;5088232;28;20066;-78
2021/08/15 04:50:49;;;;;;;10.85;4.75;;;;;;;;;;5107438;28;20016;-79
2021/08/15 04:53:15;;;;;;;13.50;5.10;;;;;;;;;;5123901;28;20035;-78
2021/08/15 04:55:40;;;;;;;12.32;4.82;;;;;;;;;;5106946;28;20087;-78
2021/08/15 04:58:06;;;;;;;12.23;4.82;;;;;;;;;;5106785;28;20072;-78
2021/08/15 05:00:31;;;;;;;16.95;5.75;;;;;;;;;;5123444;28;20385;-78
2021/08/15 05:02:57;;;;;;;12.63;5.22;;;;;;;;;;5106582;28;20042;-78
2021/08/15 05:05:22;;;;;;;15.95;5.47;;;;;;;;;;5106444;28;20027;-78
2021/08/15 05:07:49;;;;;;;15.55;6.68;;;;;;;;;;5123856;28;20136;-78
2021/08/15 05:10:16;;;;;;;20.75;6.65;;;;;;;;;;5106043;28;20401;-78
2021/08/15 05:12:43;;;;;;;15.95;6.70;;;;;;;;;;5106811;28;20485;-78
2021/08/15 05:15:09;;;;;;;14.88;6.95;;;;;;;;;;5106833;28;20043;-78
2021/08/15 05:17:36;;;;;;;18.23;8.25;;;;;;;;;;5106477;28;20108;-78
2021/08/15 05:20:01;;;;;;;20.58;7.63;;;;;;;;;;5108279;28;20112;-78
2021/08/15 05:22:27;;;;;;;18.27;7.53;;;;;;;;;;5103015;28;20481;-78
2021/08/15 05:24:52;;;;;;;11.77;6.43;;;;;;;;;;5085494;28;20028;-78
2021/08/15 05:27:18;;;;;;;17.02;6.13;;;;;;;;;;5086291;28;20468;-78
2021/08/15 05:29:43;;;;;;;11.40;6.03;;;;;;;;;;5085745;28;20051;-78
2021/08/15 05:32:09;;;;;;;11.82;5.55;;;;;;;;;;5103726;28;20040;-78
2021/08/15 05:34:35;;;;;;;11.18;4.55;;;;;;;;;;5084715;28;20048;-78
2021/08/15 05:37:00;;;;;;;11.88;5.35;;;;;;;;;;5102148;28;20046;-78
2021/08/15 05:39:25;;;;;;;9.02;4.20;;;;;;;;;;5102157;28;20036;-78
2021/08/15 05:41:51;;;;;;;7.85;5.38;;;;;;;;;;5086031;28;20047;-78
2021/08/15 05:44:16;;;;;;;8.55;5.35;;;;;;;;;;5086830;28;20039;-78
2021/08/15 05:46:42;;;;;;;7.78;4.30;;;;;;;;;;5103667;28;20038;-78
2021/08/15 05:49:07;;;;;;;10.52;5.53;;;;;;;;;;5085528;28;20028;-78
2021/08/15 05:51:33;;;;;;;17.25;6.60;;;;;;;;;;5087092;28;20032;-78
2021/08/15 05:53:58;;;;;;;14.85;6.38;;;;;;;;;;5087356;28;20040;-78
2021/08/15 05:56:23;;;;;;;17.17;6.80;;;;;;;;;;5062799;28;20120;-78
2021/08/15 05:58:49;;;;;;;11.40;5.90;;;;;;;;;;5066657;28;20060;-78
2021/08/15 06:01:14;;;;;;;8.95;6.13;;;;;;;;;;5092280;28;20104;-78
2021/08/15 06:03:41;;;;;;;11.85;6.18;;;;;;;;;;5086797;28;20066;-78
2021/08/15 06:06:07;;;;;;;9.20;6.00;;;;;;;;;;5102427;28;20113;-78
2021/08/15 06:08:32;;;;;;;12.13;6.80;;;;;;;;;;5102907;28;20114;-78
2021/08/15 06:10:58;;;;;;;10.65;6.65;;;;;;;;;;5103891;28;20036;-78
2021/08/15 06:13:23;;;;;;;10.48;5.70;;;;;;;;;;5102322;28;20058;-78
2021/08/15 06:15:48;;;;;;;10.77;5.93;;;;;;;;;;5085702;28;20070;-78
2021/08/15 06:18:16;;;;;;;12.95;6.72;;;;;;;;;;5102136;28;20033;-78
2021/08/15 06:20:41;;;;;;;11.85;6.93;;;;;;;;;;5086716;28;20477;-79
2021/08/15 06:23:07;;;;;;;18.58;7.45;;;;;;;;;;5104811;28;20028;-79
2021/08/15 06:25:32;;;;;;;12.68;6.85;;;;;;;;;;5082320;28;20043;-78
2021/08/15 06:27:58;;;;;;;11.02;6.75;;;;;;;;;;5085371;28;20032;-79
2021/08/15 06:30:23;;;;;;;8.48;5.55;;;;;;;;;;5087833;28;20036;-79
2021/08/15 06:32:51;;;;;;;10.35;6.53;;;;;;;;;;5068691;28;20067;-78
2021/08/15 06:35:18;;;;;;;8.15;5.97;;;;;;;;;;5067640;28;20478;-79
2021/08/15 06:37:45;;;;;;;11.02;6.13;;;;;;;;;;5083173;28;20037;-78
2021/08/15 06:40:11;;;;;;;7.70;5.15;;;;;;;;;;5082833;28;20167;-78
2021/08/15 06:42:36;;;;;;;9.20;5.22;;;;;;;;;;5067358;28;20452;-78
2021/08/15 06:45:03;;;;;;;6.57;4.70;;;;;;;;;;5085595;28;20044;-78
2021/08/15 06:47:28;;;;;;;13.20;5.97;;;;;;;;;;5068189;28;20024;-78
2021/08/15 06:49:54;;;;;;;11.25;6.53;;;;;;;;;;5085857;28;20094;-78
2021/08/15 06:52:19;;;;;;;11.40;6.13;;;;;;;;;;5083919;28;20036;-78
2021/08/15 06:54:45;;;;;;;13.48;6.40;;;;;;;;;;5083720;28;20036;-78
2021/08/15 06:57:10;;;;;;;10.05;5.88;;;;;;;;;;5067882;28;20040;-78
2021/08/15 06:59:36;;;;;;;14.18;6.28;;;;;;;;;;5066893;28;20062;-78
2021/08/15 07:02:01;;;;;;;12.63;6.35;;;;;;;;;;5084612;28;20040;-78
2021/08/15 07:04:26;;;;;;;12.57;6.40;;;;;;;;;;5086293;28;20100;-79
2021/08/15 07:06:52;;;;;;;13.55;8.23;;;;;;;;;;5085237;28;20040;-79
2021/08/15 07:09:17;;;;;;;20.00;9.75;;;;;;;;;;5085847;28;20032;-79
2021/08/15 07:11:43;;;;;;;15.75;8.80;;;;;;;;;;5084989;28;20058;-78
2021/08/15 07:14:08;;;;;;;17.27;8.43;;;;;;;;;;5102749;28;20075;-79
2021/08/15 07:16:34;;;;;;;16.15;8.27;;;;;;;;;;5089361;28;20064;-79
2021/08/15 07:19:00;;;;;;;14.65;7.18;;;;;;;;;;5089341;28;20040;-79
2021/08/15 07:21:25;;;;;;;11.43;7.43;;;;;;;;;;5088446;28;20136;-79
2021/08/15 07:23:50;;;;;;;15.52;7.80;;;;;;;;;;5109414;28;20035;-79
2021/08/15 07:26:16;;;;;;;15.43;8.18;;;;;;;;;;5109579;28;20039;-79
2021/08/15 07:28:41;;;;;;;11.55;6.90;;;;;;;;;;5108160;28;20040;-80
2021/08/15 07:31:06;;;;;;;16.40;8.27;;;;;;;;;;5126791;28;20042;-79
2021/08/15 07:33:32;;;;;;;11.90;7.63;;;;;;;;;;5125895;28;20039;-79
2021/08/15 07:35:57;;;;;;;12.70;7.55;;;;;;;;;;5108176;28;20040;-79
2021/08/15 07:38:23;;;;;;;14.65;7.68;;;;;;;;;;5108706;28;20035;-79
2021/08/15 07:40:49;;;;;;;12.95;6.85;;;;;;;;;;5092058;28;20020;-80
2021/08/15 07:43:14;;;;;;;12.40;6.57;;;;;;;;;;5126349;28;20058;-80
2021/08/15 07:45:39;;;;;;;11.15;6.30;;;;;;;;;;5108506;28;20039;-80
2021/08/15 07:48:05;;;;;;;15.52;7.15;;;;;;;;;;5126586;28;20079;-81
2021/08/15 07:50:36;;;;;;;16.75;5.82;;;;;;;;;;5108880;28;20073;-80
2021/08/15 07:53:16;;;;;;;15.95;6.93;;;;;;;;;;5124002;28;20035;-80
2021/08/15 07:55:41;;;;;;;13.18;5.68;;;;;;;;;;5087680;28;20040;-80
2021/08/15 07:58:07;;;;;;;12.27;6.35;;;;;;;;;;5087937;28;20115;-80
2021/08/15 08:00:32;;;;;;;10.23;5.63;;;;;;;;;;5087807;28;20103;-80
2021/08/15 08:02:57;;;;;;;14.85;6.85;;;;;;;;;;5089850;28;20444;-79
2021/08/15 08:05:23;;;;;;;15.07;6.70;;;;;;;;;;5109202;28;20042;-80
2021/08/15 08:07:48;;;;;;;14.27;6.55;;;;;;;;;;5111443;28;20051;-80
2021/08/15 08:10:14;;;;;;;11.05;5.13;;;;;;;;;;5093921;28;20044;-81
2021/08/15 08:12:39;;;;;;;10.30;5.90;;;;;;;;;;5092167;28;20044;-80
2021/08/15 08:15:05;;;;;;;10.27;6.25;;;;;;;;;;5107962;28;20137;-80
2021/08/15 08:17:31;;;;;;;12.68;6.75;;;;;;;;;;5095290;28;20043;-81
2021/08/15 08:19:56;;;;;;;13.05;6.45;;;;;;;;;;5095214;28;20059;-81
2021/08/15 08:22:21;;;;;;;9.95;5.95;;;;;;;;;;5095070;28;20032;-82
2021/08/15 08:24:47;;;;;;;13.63;6.85;;;;;;;;;;5113820;28;20052;-81
2021/08/15 08:27:12;;;;;;;11.98;6.35;;;;;;;;;;5112873;28;20032;-81
2021/08/15 08:29:38;;;;;;;14.10;6.15;;;;;;;;;;5084930;28;20058;-81
2021/08/15 08:32:05;;;;;;;10.70;5.68;;;;;;;;;;5083840;28;20100;-81
2021/08/15 08:34:30;;;;;;;12.95;5.70;;;;;;;;;;5083827;28;20142;-81
2021/08/15 08:36:56;;;;;;;12.05;6.07;;;;;;;;;;5100832;28;20074;-81
2021/08/15 08:39:21;;;;;;;11.77;5.50;;;;;;;;;;5102124;28;20032;-81
2021/08/15 08:41:47;;;;;;;11.70;6.75;;;;;;;;;;5101776;28;20543;-81
2021/08/15 08:44:14;;;;;;;11.43;5.32;;;;;;;;;;5084452;28;20052;-81
2021/08/15 08:46:39;;;;;;;13.05;5.95;;;;;;;;;;5084455;28;20036;-81
2021/08/15 08:49:05;;;;;;;13.75;5.93;;;;;;;;;;5106316;28;20103;-81
2021/08/15 08:51:31;;;;;;;10.90;5.68;;;;;;;;;;5104691;28;20046;-81
2021/08/15 08:53:56;;;;;;;12.82;6.10;;;;;;;;;;5121510;28;20039;-81
2021/08/15 08:56:22;;;;;;;12.15;5.20;;;;;;;;;;5104121;28;20094;-81
2021/08/15 08:58:49;;;;;;;14.35;6.05;;;;;;;;;;5103703;28;20031;-81
2021/08/15 09:01:15;;;;;;;10.68;5.25;;;;;;;;;;5105010;28;20032;-81
2021/08/15 09:03:41;;;;;;;10.35;5.40;;;;;;;;;;5120929;28;20046;-81
2021/08/15 09:06:28;;;;;;;10.45;4.68;;;;;;;;;;5103625;28;20035;-81
2021/08/15 09:08:54;;;;;;;16.73;6.18;;;;;;;;;;5103552;28;20031;-81
2021/08/15 09:11:22;;;;;;;9.77;4.70;;;;;;;;;;5103314;28;20478;-81
2021/08/15 09:14:03;;;;;;;7.80;4.60;;;;;;;;;;5100232;28;20084;-81
2021/08/15 09:16:58;;;;;;;7.97;4.80;;;;;;;;;;5100248;28;20043;-81
2021/08/15 09:19:29;;;;;;;7.97;4.35;;;;;;;;;;5083006;28;20047;-81
2021/08/15 09:21:57;;;;;;;9.07;4.43;;;;;;;;;;5099897;28;20032;-81
2021/08/15 09:24:23;;;;;;;13.88;4.95;;;;;;;;;;5088871;28;20032;-81
2021/08/15 09:26:57;;;;;;;11.25;4.53;;;;;;;;;;5079752;28;20096;-82
2021/08/15 09:29:23;;;;;;;7.57;4.40;;;;;;;;;;5081091;28;20070;-82
2021/08/15 09:31:48;;;;;;;8.85;4.72;;;;;;;;;;5068285;28;20036;-82
2021/08/15 09:34:28;;;;;;;12.63;5.07;;;;;;;;;;5072353;28;20051;-81
2021/08/15 09:36:54;;;;;;;7.18;4.00;;;;;;;;;;5089728;28;20401;-81
2021/08/15 09:39:31;;;;;;;9.65;4.47;;;;;;;;;;5073116;28;20024;-82
2021/08/15 09:41:57;;;;;;;10.27;5.13;;;;;;;;;;5072236;28;20032;-81
2021/08/15 09:44:28;;;;;;;8.05;4.22;;;;;;;;;;5072254;28;20037;-83
2021/08/15 09:46:57;;;;;;;11.52;4.85;;;;;;;;;;5074390;28;20028;-83
2021/08/15 09:49:23;;;;;;;8.93;4.97;;;;;;;;;;5074731;28;20473;-82
2021/08/15 09:51:48;;;;;;;9.57;4.43;;;;;;;;;;5080771;28;20036;-82
2021/08/15 09:54:17;;;;;;;9.15;3.85;;;;;;;;;;5111869;28;20094;-82
2021/08/15 09:56:43;;;;;;;9.10;3.95;;;;;;;;;;5093988;28;20032;-81
2021/08/15 09:59:20;;;;;;;8.65;3.70;;;;;;;;;;5093559;28;20058;-81
2021/08/15 10:01:48;;;;;;;8.88;3.33;;;;;;;;;;5093673;28;20038;-81
2021/08/15 10:04:15;;;;;;;5.57;2.78;;;;;;;;;;5101605;28;20046;-81
2021/08/15 10:06:43;;;;;;;7.00;2.92;;;;;;;;;;5113384;28;20077;-82
2021/08/15 10:09:08;;;;;;;5.25;3.03;;;;;;;;;;5130715;28;20019;-82
2021/08/15 10:11:35;;;;;;;6.70;3.45;;;;;;;;;;5116961;28;20091;-82
2021/08/15 10:14:02;;;;;;;5.60;2.90;;;;;;;;;;5115931;28;20249;-83
2021/08/15 10:16:54;;;;;;;7.43;3.10;;;;;;;;;;5115944;28;20028;-82
2021/08/15 10:19:37;;;;;;;5.18;2.70;;;;;;;;;;5116342;28;20035;-82
2021/08/15 10:22:03;;;;;;;7.53;3.20;;;;;;;;;;5114595;28;20031;-82
2021/08/15 10:24:48;;;;;;;6.10;3.15;;;;;;;;;;5095225;28;20104;-81
2021/08/15 10:27:39;;;;;;;7.93;2.95;;;;;;;;;;5092533;28;20036;-82
2021/08/15 10:30:17;;;;;;;8.80;3.55;;;;;;;;;;5092744;28;20039;-82
2021/08/15 10:33:02;;;;;;;4.53;2.70;;;;;;;;;;5092778;28;20475;-82
2021/08/15 10:35:28;;;;;;;;;;;;;;;;;;5082508;28;20048;-81
2021/08/15 10:37:59;;;;;;;5.72;2.97;;;;;;;;;;5089911;28;19980;-81
2021/08/15 10:40:43;;;;;;;7.40;3.08;;;;;;;;;;5089006;28;20102;-82
2021/08/15 10:43:20;;;;;;;6.45;3.28;;;;;;;;;;5089100;28;20128;-83
2021/08/15 10:46:11;;;;;;;9.82;3.20;;;;;;;;;;5073377;28;20029;-81
2021/08/15 10:49:01;;;;;;;10.02;4.68;;;;;;;;;;5087873;28;20037;-81
2021/08/15 10:51:47;;;;;;;9.32;3.03;;;;;;;;;;5071720;28;20017;-81
2021/08/15 10:54:28;;;;;;;8.73;3.40;;;;;;;;;;5073650;28;20066;-81
2021/08/15 10:56:59;;;;;;;7.95;2.92;;;;;;;;;;5090742;28;20054;-81
2021/08/15 10:59:41;;;;;;;7.68;3.08;;;;;;;;;;5090026;28;20410;-82
2021/08/15 11:02:17;;;;;;;10.07;3.25;;;;;;;;;;5089793;28;20032;-81
2021/08/15 11:04:57;;;;;;;6.43;2.75;;;;;;;;;;5089920;28;20023;-81
2021/08/15 11:07:36;;;;;;;8.48;3.22;;;;;;;;;;5090037;28;20028;-81
2021/08/15 11:10:07;;;;;;;5.15;3.28;;;;;;;;;;5107366;28;20057;-81
2021/08/15 11:12:32;;;;;;;7.70;3.10;;;;;;;;;;5107342;28;20028;-81
2021/08/15 11:15:06;;;;;;;5.50;3.03;;;;;;;;;;5090443;28;20093;-81
2021/08/15 11:17:34;;;;;;;9.52;3.55;;;;;;;;;;5089825;28;20050;-82
2021/08/15 11:20:32;;;;;;;8.98;3.42;;;;;;;;;;5107798;28;20048;-81
2021/08/15 11:23:08;;;;;;;5.90;2.97;;;;;;;;;;5090535;28;20130;-82
2021/08/15 11:25:34;;;;;;;9.77;3.38;;;;;;;;;;5103059;28;20096;-81
2021/08/15 11:27:59;;;;;;;7.22;2.80;;;;;;;;;;5086486;28;20036;-81
2021/08/15 11:30:25;;;;;;;6.55;3.42;;;;;;;;;;5087366;28;20033;-82
2021/08/15 11:32:58;;;;;;;17.20;3.25;;;;;;;;;;5069092;28;20055;-81
2021/08/15 11:35:30;;;;;;;35.95;5.15;;;;;;;;;;5087470;28;20040;-81
2021/08/15 11:37:55;;;;;;;8.98;2.97;;;;;;;;;;5069889;28;20032;-82
2021/08/15 11:40:22;;;;;;;4.93;2.67;;;;;;;;;;5088830;28;20028;-82
2021/08/15 11:43:10;;;;;;;8.75;3.10;;;;;;;;;;5090900;28;20040;-83
2021/08/15 11:45:39;;;;;;;7.22;2.80;;;;;;;;;;5090152;28;20344;-82
2021/08/15 11:48:14;;;;;;;5.55;2.50;;;;;;;;;;5073226;28;20039;-82
2021/08/15 11:50:42;;;;;;;8.10;2.55;;;;;;;;;;5089863;28;20086;-82
2021/08/15 11:53:26;;;;;;;6.15;3.03;;;;;;;;;;5104788;28;20082;-82
2021/08/15 11:55:53;;;;;;;4.93;2.70;;;;;;;;;;5071666;28;20047;-82
2021/08/15 11:58:19;;;;;;;8.52;2.60;;;;;;;;;;5072116;28;20083;-82
2021/08/15 12:00:45;;;;;;;4.85;2.70;;;;;;;;;;5070752;28;20053;-82
2021/08/15 12:03:21;;;;;;;6.30;2.53;;;;;;;;;;5074330;28;20087;-82
2021/08/15 12:05:54;;;;;;;5.95;2.60;;;;;;;;;;5074786;28;20044;-82
2021/08/15 12:08:21;;;;;;;12.02;2.97;;;;;;;;;;5090811;28;20036;-83
2021/08/15 12:10:49;;;;;;;4.88;2.45;;;;;;;;;;5073896;28;20036;-82
2021/08/15 12:13:22;;;;;;;4.65;2.42;;;;;;;;;;5074193;28;20063;-81
2021/08/15 12:15:52;;;;;;;4.68;2.33;;;;;;;;;;5073397;28;20040;-82
2021/08/15 12:18:27;;;;;;;6.50;2.72;;;;;;;;;;5070647;28;20159;-82
2021/08/15 12:20:53;;;;;;;6.13;2.80;;;;;;;;;;5074527;28;20033;-82
2021/08/15 12:23:19;;;;;;;4.70;2.53;;;;;;;;;;5092620;28;20032;-82
2021/08/15 12:26:03;;;;;;;4.00;2.38;;;;;;;;;;5110497;28;20066;-82
2021/08/15 12:28:33;;;;;;;8.50;2.53;;;;;;;;;;5111034;28;20462;-81
2021/08/15 12:31:19;;;;;;;4.28;2.28;;;;;;;;;;5111514;28;20036;-82
2021/08/15 12:33:44;;;;;;;10.63;2.88;;;;;;;;;;5093312;28;20069;-83
2021/08/15 12:36:23;;;;;;;4.03;2.55;;;;;;;;;;5091523;28;20033;-82
2021/08/15 12:39:00;;;;;;;6.60;2.20;;;;;;;;;;5072102;28;20103;-82
2021/08/15 12:41:29;;;;;;;5.70;2.53;;;;;;;;;;5072336;28;20032;-81
2021/08/15 12:44:13;;;;;;;4.22;2.40;;;;;;;;;;5071635;28;20563;-81
2021/08/15 12:46:39;;;;;;;6.90;2.70;;;;;;;;;;5071608;28;20043;-81
2021/08/15 12:49:18;;;;;;;6.28;2.15;;;;;;;;;;5075387;28;20117;-81
2021/08/15 12:51:48;;;;;;;6.03;2.33;;;;;;;;;;5112615;28;20036;-81
2021/08/15 12:54:13;;;;;;;8.13;2.67;;;;;;;;;;5113317;28;20059;-82
2021/08/15 12:56:39;;;;;;;7.72;2.50;;;;;;;;;;5095520;28;20048;-80
2021/08/15 12:59:05;;;;;;;9.63;2.50;;;;;;;;;;5096134;28;20039;-80
2021/08/15 13:01:30;;;;;;;6.05;2.30;;;;;;;;;;5111727;28;20036;-80
2021/08/15 13:03:59;;;;;;;3.20;2.15;;;;;;;;;;5112721;28;20035;-80
2021/08/15 13:06:26;;;;;;;3.47;2.22;;;;;;;;;;5095784;28;20568;-80
2021/08/15 13:08:52;;;;;;;4.30;2.58;;;;;;;;;;5112293;28;20065;-80
2021/08/15 13:11:17;;;;;;;4.93;2.55;;;;;;;;;;5095015;28;20043;-80
2021/08/15 13:13:45;;;;;;;6.72;2.67;;;;;;;;;;5094521;28;20032;-79
2021/08/15 13:16:14;;;;;;;3.45;2.33;;;;;;;;;;5111690;28;20489;-80
2021/08/15 13:18:39;;;;;;;6.82;2.63;;;;;;;;;;5093420;28;20046;-80
2021/08/15 13:21:05;;;;;;;7.50;2.40;;;;;;;;;;5091507;28;20033;-80
2021/08/15 13:23:31;;;;;;;4.88;2.72;;;;;;;;;;5072121;28;20040;-81
2021/08/15 13:25:57;;;;;;;4.18;2.72;;;;;;;;;;5074070;28;20036;-80
2021/08/15 13:28:24;;;;;;;5.03;2.30;;;;;;;;;;5074773;28;20032;-80
2021/08/15 13:30:50;;;;;;;8.50;3.05;;;;;;;;;;5091753;28;20067;-80
2021/08/15 13:33:18;;;;;;;4.47;2.42;;;;;;;;;;5090434;28;20402;-80
2021/08/15 13:35:44;;;;;;;8.32;2.50;;;;;;;;;;5075365;28;20037;-80
2021/08/15 13:38:09;;;;;;;7.35;2.50;;;;;;;;;;5073958;28;20037;-80
2021/08/15 13:40:35;;;;;;;7.25;3.22;;;;;;;;;;5072952;28;20094;-79
2021/08/15 13:43:00;;;;;;;4.25;2.80;;;;;;;;;;5073288;28;20412;-80
2021/08/15 13:45:26;;;;;;;6.45;2.60;;;;;;;;;;5073933;28;20032;-80
2021/08/15 13:47:52;;;;;;;7.00;3.10;;;;;;;;;;5074686;28;20035;-80
2021/08/15 13:50:18;;;;;;;3.95;2.60;;;;;;;;;;5076800;28;20028;-80
2021/08/15 13:52:45;;;;;;;3.60;2.30;;;;;;;;;;5081734;28;20035;-80
2021/08/15 13:55:12;;;;;;;6.30;2.30;;;;;;;;;;5115948;28;20039;-80
2021/08/15 13:57:38;;;;;;;3.22;2.30;;;;;;;;;;5115124;28;20051;-81
2021/08/15 14:00:04;;;;;;;3.65;2.60;;;;;;;;;;5113203;28;20042;-80
2021/08/15 14:02:31;;;;;;;5.07;2.60;;;;;;;;;;5131069;28;20065;-79
2021/08/15 14:04:56;;;;;;;8.43;2.50;;;;;;;;;;5113965;28;20035;-80
2021/08/15 14:07:21;;;;;;;6.82;2.42;;;;;;;;;;5113266;28;20098;-79
2021/08/15 14:09:47;;;;;;;3.83;2.15;;;;;;;;;;5112745;28;20054;-79
2021/08/15 14:12:12;;;;;;;4.78;2.38;;;;;;;;;;5130523;28;20039;-81
2021/08/15 14:14:38;;;;;;;3.83;2.22;;;;;;;;;;5112610;28;20031;-80
2021/08/15 14:17:08;;;;;;;7.22;2.20;;;;;;;;;;5112500;28;20043;-79
2021/08/15 14:19:33;;;;;;;5.13;2.63;;;;;;;;;;5128448;28;20153;-79
2021/08/15 14:21:59;;;;;;;4.40;2.83;;;;;;;;;;5111598;28;20026;-80
2021/08/15 14:24:24;;;;;;;7.68;2.28;;;;;;;;;;5110079;28;20053;-80
2021/08/15 14:26:50;;;;;;;5.68;2.67;;;;;;;;;;5107140;28;20027;-80
2021/08/15 14:29:15;;;;;;;3.47;2.22;;;;;;;;;;5105422;28;20083;-80
2021/08/15 14:31:41;;;;;;;4.22;2.42;;;;;;;;;;5095549;28;20039;-80
2021/08/15 14:34:06;;;;;;;3.65;2.40;;;;;;;;;;5096217;28;20077;-80
2021/08/15 14:36:33;;;;;;;4.97;2.80;;;;;;;;;;5112074;28;20028;-80
2021/08/15 14:38:59;;;;;;;5.20;2.50;;;;;;;;;;5094755;28;20058;-80
2021/08/15 14:41:24;;;;;;;5.47;2.78;;;;;;;;;;5110689;28;20040;-80
2021/08/15 14:43:49;;;;;;;5.00;2.40;;;;;;;;;;5093648;28;20059;-79